sensor_id;sensor_type;location;lat;lon;timestamp;temperature;humidity
22456;DHT22;11395;53.204;6.502;2023-05-16T00:00:42;22.80;64.70
22456;DHT22;11395;53.204;6.502;2023-05-16T00:03:09;22.70;64.70
22456;DHT22;11395;53.204;6.502;2023-05-16T00:05:36;22.70;64.60
22456;DHT22;11395;53.204;6.502;2023-05-16T00:08:02;22.70;64.70
22456;DHT22;11395;53.204;6.502;2023-05-16T00:10:29;22.70;64.70
22456;DHT22;11395;53.204;6.502;2023-05-16T00:12:55;22.60;64.60
22456;DHT22;11395;53.204;6.502;2023-05-16T00:15:22;22.60;64.80
22456;DHT22;11395;53.204;6.502;2023-05-16T00:17:49;22.60;64.70
22456;DHT22;11395;53.204;6.502;2023-05-16T00:20:16;22.60;64.70
22456;DHT22;11395;53.204;6.502;2023-05-16T00:22:48;22.60;64.70
22456;DHT22;11395;53.204;6.502;2023-05-16T00:25:14;22.60;64.90
22456;DHT22;11395;53.204;6.502;2023-05-16T00:27:40;22.50;64.90
22456;DHT22;11395;53.204;6.502;2023-05-16T00:30:06;22.60;65.00
22456;DHT22;11395;53.204;6.502;2023-05-16T00:32:33;22.50;65.10
22456;DHT22;11395;53.204;6.502;2023-05-16T00:35:00;22.50;65.10
22456;DHT22;11395;53.204;6.502;2023-05-16T00:37:26;22.40;65.20
22456;DHT22;11395;53.204;6.502;2023-05-16T00:39:53;22.40;65.20
22456;DHT22;11395;53.204;6.502;2023-05-16T00:42:19;22.40;65.40
22456;DHT22;11395;53.204;6.502;2023-05-16T00:44:47;22.30;65.30
22456;DHT22;11395;53.204;6.502;2023-05-16T00:47:15;22.30;65.40
22456;DHT22;11395;53.204;6.502;2023-05-16T00:49:41;22.30;65.40
22456;DHT22;11395;53.204;6.502;2023-05-16T00:52:07;22.30;65.50
22456;DHT22;11395;53.204;6.502;2023-05-16T00:54:33;22.20;65.50
22456;DHT22;11395;53.204;6.502;2023-05-16T00:57:00;22.20;65.50
22456;DHT22;11395;53.204;6.502;2023-05-16T00:59:27;22.20;65.60
22456;DHT22;11395;53.204;6.502;2023-05-16T01:01:53;22.20;65.60
22456;DHT22;11395;53.204;6.502;2023-05-16T01:04:21;22.10;65.60
22456;DHT22;11395;53.204;6.502;2023-05-16T01:06:47;22.10;65.60
22456;DHT22;11395;53.204;6.502;2023-05-16T01:09:13;22.10;65.70
22456;DHT22;11395;53.204;6.502;2023-05-16T01:12:34;22.00;65.60
22456;DHT22;11395;53.204;6.502;2023-05-16T01:23:15;21.90;66.00
22456;DHT22;11395;53.204;6.502;2023-05-16T01:26:09;21.90;66.00
22456;DHT22;11395;53.204;6.502;2023-05-16T01:28:38;21.90;66.00
22456;DHT22;11395;53.204;6.502;2023-05-16T01:31:04;21.90;66.00
22456;DHT22;11395;53.204;6.502;2023-05-16T01:33:31;21.90;66.00
22456;DHT22;11395;53.204;6.502;2023-05-16T01:39:06;21.80;66.10
22456;DHT22;11395;53.204;6.502;2023-05-16T01:46:57;21.80;66.20
22456;DHT22;11395;53.204;6.502;2023-05-16T01:49:59;21.70;66.20
22456;DHT22;11395;53.204;6.502;2023-05-16T01:52:37;21.70;66.10
22456;DHT22;11395;53.204;6.502;2023-05-16T01:55:10;21.70;66.30
22456;DHT22;11395;53.204;6.502;2023-05-16T01:57:37;21.70;66.20
22456;DHT22;11395;53.204;6.502;2023-05-16T02:00:05;21.70;66.30
22456;DHT22;11395;53.204;6.502;2023-05-16T02:02:40;21.70;66.30
22456;DHT22;11395;53.204;6.502;2023-05-16T02:05:06;21.60;66.30
22456;DHT22;11395;53.204;6.502;2023-05-16T02:07:33;21.60;66.30
22456;DHT22;11395;53.204;6.502;2023-05-16T02:09:59;21.70;66.40
22456;DHT22;11395;53.204;6.502;2023-05-16T02:12:25;21.80;66.50
22456;DHT22;11395;53.204;6.502;2023-05-16T02:14:52;21.60;66.30
22456;DHT22;11395;53.204;6.502;2023-05-16T02:17:18;21.60;66.50
22456;DHT22;11395;53.204;6.502;2023-05-16T02:19:44;21.60;66.50
22456;DHT22;11395;53.204;6.502;2023-05-16T02:22:10;21.50;67.20
22456;DHT22;11395;53.204;6.502;2023-05-16T02:24:36;21.60;66.30
22456;DHT22;11395;53.204;6.502;2023-05-16T02:27:03;21.60;66.30
22456;DHT22;11395;53.204;6.502;2023-05-16T02:29:29;21.60;66.30
22456;DHT22;11395;53.204;6.502;2023-05-16T02:31:55;21.70;66.40
22456;DHT22;11395;53.204;6.502;2023-05-16T02:34:21;21.50;66.40
22456;DHT22;11395;53.204;6.502;2023-05-16T02:36:47;21.50;66.50
22456;DHT22;11395;53.204;6.502;2023-05-16T02:39:13;21.30;66.40
22456;DHT22;11395;53.204;6.502;2023-05-16T02:41:40;21.50;66.50
22456;DHT22;11395;53.204;6.502;2023-05-16T02:44:07;21.40;66.50
22456;DHT22;11395;53.204;6.502;2023-05-16T02:46:34;21.40;66.50
22456;DHT22;11395;53.204;6.502;2023-05-16T02:49:00;21.40;66.60
22456;DHT22;11395;53.204;6.502;2023-05-16T02:51:28;21.40;66.60
22456;DHT22;11395;53.204;6.502;2023-05-16T02:53:54;21.30;66.40
22456;DHT22;11395;53.204;6.502;2023-05-16T02:56:26;21.30;66.50
22456;DHT22;11395;53.204;6.502;2023-05-16T02:58:53;21.30;66.50
22456;DHT22;11395;53.204;6.502;2023-05-16T03:01:20;21.30;66.60
22456;DHT22;11395;53.204;6.502;2023-05-16T03:03:46;21.30;66.70
22456;DHT22;11395;53.204;6.502;2023-05-16T03:06:12;21.10;66.60
22456;DHT22;11395;53.204;6.502;2023-05-16T03:08:38;21.30;66.80
22456;DHT22;11395;53.204;6.502;2023-05-16T03:11:04;21.20;66.60
22456;DHT22;11395;53.204;6.502;2023-05-16T03:13:31;21.20;66.60
22456;DHT22;11395;53.204;6.502;2023-05-16T03:15:58;21.20;66.60
22456;DHT22;11395;53.204;6.502;2023-05-16T03:18:24;21.20;66.60
22456;DHT22;11395;53.204;6.502;2023-05-16T03:20:50;21.20;66.60
22456;DHT22;11395;53.204;6.502;2023-05-16T03:23:20;21.20;66.60
22456;DHT22;11395;53.204;6.502;2023-05-16T03:25:46;21.10;66.60
22456;DHT22;11395;53.204;6.502;2023-05-16T03:28:13;21.10;66.50
22456;DHT22;11395;53.204;6.502;2023-05-16T03:30:39;21.10;66.70
22456;DHT22;11395;53.204;6.502;2023-05-16T03:33:05;21.10;66.60
22456;DHT22;11395;53.204;6.502;2023-05-16T03:35:32;21.10;66.50
22456;DHT22;11395;53.204;6.502;2023-05-16T03:37:58;21.10;66.70
22456;DHT22;11395;53.204;6.502;2023-05-16T03:40:24;21.10;66.70
22456;DHT22;11395;53.204;6.502;2023-05-16T03:42:51;21.10;66.70
22456;DHT22;11395;53.204;6.502;2023-05-16T03:45:17;21.10;66.40
22456;DHT22;11395;53.204;6.502;2023-05-16T03:47:43;21.20;65.90
22456;DHT22;11395;53.204;6.502;2023-05-16T03:50:09;21.40;66.10
22456;DHT22;11395;53.204;6.502;2023-05-16T03:52:35;21.40;65.90
22456;DHT22;11395;53.204;6.502;2023-05-16T03:55:02;21.40;65.60
22456;DHT22;11395;53.204;6.502;2023-05-16T03:57:31;21.60;65.50
22456;DHT22;11395;53.204;6.502;2023-05-16T03:59:57;21.70;65.40
22456;DHT22;11395;53.204;6.502;2023-05-16T04:02:24;21.80;65.30
22456;DHT22;11395;53.204;6.502;2023-05-16T04:04:50;21.90;65.10
22456;DHT22;11395;53.204;6.502;2023-05-16T04:07:16;22.00;64.80
22456;DHT22;11395;53.204;6.502;2023-05-16T04:09:42;22.10;64.60
22456;DHT22;11395;53.204;6.502;2023-05-16T04:12:08;22.20;64.40
22456;DHT22;11395;53.204;6.502;2023-05-16T04:14:34;22.30;64.20
22456;DHT22;11395;53.204;6.502;2023-05-16T04:17:00;22.40;63.90
22456;DHT22;11395;53.204;6.502;2023-05-16T04:19:27;22.50;63.80
22456;DHT22;11395;53.204;6.502;2023-05-16T04:21:53;22.60;63.60
22456;DHT22;11395;53.204;6.502;2023-05-16T04:24:19;22.70;63.50
22456;DHT22;11395;53.204;6.502;2023-05-16T04:26:45;22.70;63.30
22456;DHT22;11395;53.204;6.502;2023-05-16T04:29:11;22.80;63.00
22456;DHT22;11395;53.204;6.502;2023-05-16T04:31:38;22.80;63.00
22456;DHT22;11395;53.204;6.502;2023-05-16T04:34:04;22.90;62.90
22456;DHT22;11395;53.204;6.502;2023-05-16T04:36:30;22.90;62.70
22456;DHT22;11395;53.204;6.502;2023-05-16T04:38:57;22.90;62.70
22456;DHT22;11395;53.204;6.502;2023-05-16T04:41:23;23.00;62.70
22456;DHT22;11395;53.204;6.502;2023-05-16T04:43:50;23.00;62.50
22456;DHT22;11395;53.204;6.502;2023-05-16T04:46:16;23.10;62.50
22456;DHT22;11395;53.204;6.502;2023-05-16T04:48:42;23.20;62.50
22456;DHT22;11395;53.204;6.502;2023-05-16T04:51:08;23.30;62.20
22456;DHT22;11395;53.204;6.502;2023-05-16T04:53:34;23.40;62.10
22456;DHT22;11395;53.204;6.502;2023-05-16T04:56:01;23.40;62.00
22456;DHT22;11395;53.204;6.502;2023-05-16T04:58:27;23.60;61.80
22456;DHT22;11395;53.204;6.502;2023-05-16T05:00:53;23.70;61.60
22456;DHT22;11395;53.204;6.502;2023-05-16T05:03:20;23.80;61.40
22456;DHT22;11395;53.204;6.502;2023-05-16T05:05:46;23.90;61.20
22456;DHT22;11395;53.204;6.502;2023-05-16T05:08:13;24.10;61.10
22456;DHT22;11395;53.204;6.502;2023-05-16T05:10:39;24.20;60.80
22456;DHT22;11395;53.204;6.502;2023-05-16T05:13:05;24.30;60.50
22456;DHT22;11395;53.204;6.502;2023-05-16T05:15:32;24.40;60.50
22456;DHT22;11395;53.204;6.502;2023-05-16T05:17:58;24.40;60.10
22456;DHT22;11395;53.204;6.502;2023-05-16T05:20:24;24.50;60.00
22456;DHT22;11395;53.204;6.502;2023-05-16T05:22:50;24.60;59.80
22456;DHT22;11395;53.204;6.502;2023-05-16T05:25:16;24.60;59.60
22456;DHT22;11395;53.204;6.502;2023-05-16T05:27:43;24.70;59.60
22456;DHT22;11395;53.204;6.502;2023-05-16T05:30:09;24.70;59.40
22456;DHT22;11395;53.204;6.502;2023-05-16T05:32:36;24.70;59.40
22456;DHT22;11395;53.204;6.502;2023-05-16T05:35:02;24.80;59.30
22456;DHT22;11395;53.204;6.502;2023-05-16T05:37:29;24.80;59.10
22456;DHT22;11395;53.204;6.502;2023-05-16T05:39:55;24.80;59.20
22456;DHT22;11395;53.204;6.502;2023-05-16T05:42:21;24.80;59.00
22456;DHT22;11395;53.204;6.502;2023-05-16T05:44:47;24.90;59.00
22456;DHT22;11395;53.204;6.502;2023-05-16T05:47:14;24.90;59.00
22456;DHT22;11395;53.204;6.502;2023-05-16T05:49:40;24.90;59.00
22456;DHT22;11395;53.204;6.502;2023-05-16T05:52:06;24.90;58.90
22456;DHT22;11395;53.204;6.502;2023-05-16T05:54:33;25.00;58.70
22456;DHT22;11395;53.204;6.502;2023-05-16T05:56:59;25.00;58.50
22456;DHT22;11395;53.204;6.502;2023-05-16T05:59:25;25.10;58.40
22456;DHT22;11395;53.204;6.502;2023-05-16T06:01:51;25.20;58.30
22456;DHT22;11395;53.204;6.502;2023-05-16T06:04:21;25.20;58.20
22456;DHT22;11395;53.204;6.502;2023-05-16T06:06:47;25.20;58.00
22456;DHT22;11395;53.204;6.502;2023-05-16T06:09:13;25.30;58.00
22456;DHT22;11395;53.204;6.502;2023-05-16T06:11:40;25.20;58.10
22456;DHT22;11395;53.204;6.502;2023-05-16T06:14:06;25.30;58.00
22456;DHT22;11395;53.204;6.502;2023-05-16T06:16:33;25.40;57.90
22456;DHT22;11395;53.204;6.502;2023-05-16T06:18:59;25.50;57.70
22456;DHT22;11395;53.204;6.502;2023-05-16T06:21:25;25.60;57.80
22456;DHT22;11395;53.204;6.502;2023-05-16T06:23:51;25.70;57.20
22456;DHT22;11395;53.204;6.502;2023-05-16T06:26:17;25.70;57.00
22456;DHT22;11395;53.204;6.502;2023-05-16T06:28:43;25.70;57.10
22456;DHT22;11395;53.204;6.502;2023-05-16T06:31:10;25.90;57.20
22456;DHT22;11395;53.204;6.502;2023-05-16T06:33:36;25.90;56.70
22456;DHT22;11395;53.204;6.502;2023-05-16T06:36:02;26.00;56.80
22456;DHT22;11395;53.204;6.502;2023-05-16T06:38:28;26.10;56.30
22456;DHT22;11395;53.204;6.502;2023-05-16T06:40:54;26.10;56.10
22456;DHT22;11395;53.204;6.502;2023-05-16T06:43:20;26.20;55.80
22456;DHT22;11395;53.204;6.502;2023-05-16T06:45:46;26.30;55.50
22456;DHT22;11395;53.204;6.502;2023-05-16T06:48:13;26.40;55.50
22456;DHT22;11395;53.204;6.502;2023-05-16T06:50:42;26.30;55.20
22456;DHT22;11395;53.204;6.502;2023-05-16T06:53:08;26.40;55.60
22456;DHT22;11395;53.204;6.502;2023-05-16T06:55:36;26.50;55.60
22456;DHT22;11395;53.204;6.502;2023-05-16T06:58:02;26.40;55.40
22456;DHT22;11395;53.204;6.502;2023-05-16T07:00:29;26.30;55.40
22456;DHT22;11395;53.204;6.502;2023-05-16T07:02:55;26.40;55.40
22456;DHT22;11395;53.204;6.502;2023-05-16T07:05:21;26.50;55.30
22456;DHT22;11395;53.204;6.502;2023-05-16T07:07:47;26.60;55.00
22456;DHT22;11395;53.204;6.502;2023-05-16T07:10:14;26.60;55.10
22456;DHT22;11395;53.204;6.502;2023-05-16T07:12:41;26.70;55.00
22456;DHT22;11395;53.204;6.502;2023-05-16T07:15:08;26.80;54.70
22456;DHT22;11395;53.204;6.502;2023-05-16T07:17:35;26.80;54.60
22456;DHT22;11395;53.204;6.502;2023-05-16T07:20:01;26.90;54.40
22456;DHT22;11395;53.204;6.502;2023-05-16T07:22:27;27.10;54.30
22456;DHT22;11395;53.204;6.502;2023-05-16T07:24:54;27.10;54.20
22456;DHT22;11395;53.204;6.502;2023-05-16T07:27:22;27.00;54.00
22456;DHT22;11395;53.204;6.502;2023-05-16T07:29:48;27.20;53.70
22456;DHT22;11395;53.204;6.502;2023-05-16T07:32:14;27.30;53.80
22456;DHT22;11395;53.204;6.502;2023-05-16T07:34:41;27.30;53.40
22456;DHT22;11395;53.204;6.502;2023-05-16T07:37:07;27.40;53.60
22456;DHT22;11395;53.204;6.502;2023-05-16T07:39:41;27.60;53.60
22456;DHT22;11395;53.204;6.502;2023-05-16T07:42:07;27.70;53.40
22456;DHT22;11395;53.204;6.502;2023-05-16T07:44:34;28.00;52.70
22456;DHT22;11395;53.204;6.502;2023-05-16T07:47:01;28.20;52.50
22456;DHT22;11395;53.204;6.502;2023-05-16T07:49:27;28.00;52.80
22456;DHT22;11395;53.204;6.502;2023-05-16T07:51:53;27.80;53.40
22456;DHT22;11395;53.204;6.502;2023-05-16T07:54:19;27.90;53.30
22456;DHT22;11395;53.204;6.502;2023-05-16T07:56:45;28.00;53.60
22456;DHT22;11395;53.204;6.502;2023-05-16T07:59:11;27.80;52.70
22456;DHT22;11395;53.204;6.502;2023-05-16T08:01:37;27.50;53.10
22456;DHT22;11395;53.204;6.502;2023-05-16T08:04:04;27.30;53.50
22456;DHT22;11395;53.204;6.502;2023-05-16T08:06:30;27.40;53.50
22456;DHT22;11395;53.204;6.502;2023-05-16T08:08:56;27.40;53.10
22456;DHT22;11395;53.204;6.502;2023-05-16T08:11:22;27.10;53.50
22456;DHT22;11395;53.204;6.502;2023-05-16T08:13:48;27.10;53.50
22456;DHT22;11395;53.204;6.502;2023-05-16T08:16:15;26.90;54.70
22456;DHT22;11395;53.204;6.502;2023-05-16T08:18:41;26.60;54.40
22456;DHT22;11395;53.204;6.502;2023-05-16T08:21:07;26.30;54.90
22456;DHT22;11395;53.204;6.502;2023-05-16T08:23:34;26.20;55.50
22456;DHT22;11395;53.204;6.502;2023-05-16T08:26:01;26.10;55.60
22456;DHT22;11395;53.204;6.502;2023-05-16T08:28:28;26.30;55.60
22456;DHT22;11395;53.204;6.502;2023-05-16T08:30:54;27.70;53.80
22456;DHT22;11395;53.204;6.502;2023-05-16T08:33:21;28.60;52.00
22456;DHT22;11395;53.204;6.502;2023-05-16T08:35:47;28.90;51.60
22456;DHT22;11395;53.204;6.502;2023-05-16T08:38:18;29.00;51.30
22456;DHT22;11395;53.204;6.502;2023-05-16T08:40:44;29.00;50.30
22456;DHT22;11395;53.204;6.502;2023-05-16T08:43:10;28.40;50.70
22456;DHT22;11395;53.204;6.502;2023-05-16T08:45:36;28.20;51.80
22456;DHT22;11395;53.204;6.502;2023-05-16T08:48:04;28.90;50.90
22456;DHT22;11395;53.204;6.502;2023-05-16T08:50:31;29.10;50.50
22456;DHT22;11395;53.204;6.502;2023-05-16T08:53:03;28.80;50.30
22456;DHT22;11395;53.204;6.502;2023-05-16T08:55:32;28.70;51.00
22456;DHT22;11395;53.204;6.502;2023-05-16T08:57:59;29.60;50.60
22456;DHT22;11395;53.204;6.502;2023-05-16T09:00:26;29.90;48.70
22456;DHT22;11395;53.204;6.502;2023-05-16T09:02:53;29.10;49.40
22456;DHT22;11395;53.204;6.502;2023-05-16T09:05:21;28.20;51.00
22456;DHT22;11395;53.204;6.502;2023-05-16T09:07:48;27.50;52.30
22456;DHT22;11395;53.204;6.502;2023-05-16T09:10:15;27.60;53.00
22456;DHT22;11395;53.204;6.502;2023-05-16T09:12:41;27.50;52.90
22456;DHT22;11395;53.204;6.502;2023-05-16T09:15:09;27.20;53.50
22456;DHT22;11395;53.204;6.502;2023-05-16T09:17:37;26.80;54.00
22456;DHT22;11395;53.204;6.502;2023-05-16T09:20:13;26.60;54.60
22456;DHT22;11395;53.204;6.502;2023-05-16T09:22:58;26.50;54.90
22456;DHT22;11395;53.204;6.502;2023-05-16T09:25:28;26.30;55.10
22456;DHT22;11395;53.204;6.502;2023-05-16T09:27:56;26.10;55.60
22456;DHT22;11395;53.204;6.502;2023-05-16T09:30:30;26.00;55.80
22456;DHT22;11395;53.204;6.502;2023-05-16T09:32:57;25.90;56.00
22456;DHT22;11395;53.204;6.502;2023-05-16T09:35:23;25.90;56.10
22456;DHT22;11395;53.204;6.502;2023-05-16T09:37:50;25.80;56.20
22456;DHT22;11395;53.204;6.502;2023-05-16T09:40:21;25.80;56.30
22456;DHT22;11395;53.204;6.502;2023-05-16T09:43:00;25.70;57.10
22456;DHT22;11395;53.204;6.502;2023-05-16T09:45:27;25.60;56.60
22456;DHT22;11395;53.204;6.502;2023-05-16T09:47:53;25.50;56.60
22456;DHT22;11395;53.204;6.502;2023-05-16T09:50:19;25.50;56.80
22456;DHT22;11395;53.204;6.502;2023-05-16T09:52:45;25.50;56.90
22456;DHT22;11395;53.204;6.502;2023-05-16T09:55:11;25.40;57.00
22456;DHT22;11395;53.204;6.502;2023-05-16T09:57:38;25.30;57.00
22456;DHT22;11395;53.204;6.502;2023-05-16T10:00:14;25.30;57.20
22456;DHT22;11395;53.204;6.502;2023-05-16T10:02:41;25.30;57.30
22456;DHT22;11395;53.204;6.502;2023-05-16T10:05:08;25.30;57.40
22456;DHT22;11395;53.204;6.502;2023-05-16T10:07:34;25.20;57.30
22456;DHT22;11395;53.204;6.502;2023-05-16T10:10:06;25.20;57.30
22456;DHT22;11395;53.204;6.502;2023-05-16T10:12:37;25.20;57.30
22456;DHT22;11395;53.204;6.502;2023-05-16T10:15:04;25.10;57.40
22456;DHT22;11395;53.204;6.502;2023-05-16T10:17:35;25.00;57.40
22456;DHT22;11395;53.204;6.502;2023-05-16T10:20:06;25.00;57.50
22456;DHT22;11395;53.204;6.502;2023-05-16T10:22:34;25.00;57.30
22456;DHT22;11395;53.204;6.502;2023-05-16T10:27:51;24.90;57.40
22456;DHT22;11395;53.204;6.502;2023-05-16T10:30:17;24.90;57.60
22456;DHT22;11395;53.204;6.502;2023-05-16T10:32:45;24.90;57.50
22456;DHT22;11395;53.204;6.502;2023-05-16T10:35:12;24.90;57.80
22456;DHT22;11395;53.204;6.502;2023-05-16T10:37:39;24.90;57.70
22456;DHT22;11395;53.204;6.502;2023-05-16T10:40:07;24.90;57.70
22456;DHT22;11395;53.204;6.502;2023-05-16T10:42:34;24.90;57.80
22456;DHT22;11395;53.204;6.502;2023-05-16T10:45:19;25.00;57.70
22456;DHT22;11395;53.204;6.502;2023-05-16T10:48:01;25.00;57.70
22456;DHT22;11395;53.204;6.502;2023-05-16T11:06:25;25.10;57.30
22456;DHT22;11395;53.204;6.502;2023-05-16T11:14:21;25.20;57.20
22456;DHT22;11395;53.204;6.502;2023-05-16T11:16:59;25.10;57.20
22456;DHT22;11395;53.204;6.502;2023-05-16T11:19:33;25.20;57.70
22456;DHT22;11395;53.204;6.502;2023-05-16T11:22:10;25.20;57.20
22456;DHT22;11395;53.204;6.502;2023-05-16T11:24:38;25.20;56.80
22456;DHT22;11395;53.204;6.502;2023-05-16T11:27:05;25.30;57.00
22456;DHT22;11395;53.204;6.502;2023-05-16T11:29:33;25.30;57.10
22456;DHT22;11395;53.204;6.502;2023-05-16T11:32:01;25.20;57.70
22456;DHT22;11395;53.204;6.502;2023-05-16T11:34:35;25.10;57.00
22456;DHT22;11395;53.204;6.502;2023-05-16T11:37:02;25.10;57.00
22456;DHT22;11395;53.204;6.502;2023-05-16T11:39:30;25.10;57.00
22456;DHT22;11395;53.204;6.502;2023-05-16T11:41:57;25.10;57.00
22456;DHT22;11395;53.204;6.502;2023-05-16T11:44:23;25.10;57.10
22456;DHT22;11395;53.204;6.502;2023-05-16T11:46:49;25.10;56.90
22456;DHT22;11395;53.204;6.502;2023-05-16T11:49:16;25.10;57.00
22456;DHT22;11395;53.204;6.502;2023-05-16T11:51:43;25.10;56.90
22456;DHT22;11395;53.204;6.502;2023-05-16T11:54:09;25.10;57.00
22456;DHT22;11395;53.204;6.502;2023-05-16T11:56:38;25.10;56.60
22456;DHT22;11395;53.204;6.502;2023-05-16T11:59:06;25.10;56.90
22456;DHT22;11395;53.204;6.502;2023-05-16T12:01:33;25.10;56.90
22456;DHT22;11395;53.204;6.502;2023-05-16T12:04:00;25.10;56.90
22456;DHT22;11395;53.204;6.502;2023-05-16T12:06:26;25.10;57.00
22456;DHT22;11395;53.204;6.502;2023-05-16T12:08:54;25.10;57.00
22456;DHT22;11395;53.204;6.502;2023-05-16T12:11:22;25.10;57.00
22456;DHT22;11395;53.204;6.502;2023-05-16T12:13:49;25.10;57.00
22456;DHT22;11395;53.204;6.502;2023-05-16T12:16:15;25.10;57.00
22456;DHT22;11395;53.204;6.502;2023-05-16T12:18:41;25.10;56.90
22456;DHT22;11395;53.204;6.502;2023-05-16T12:21:08;25.10;56.90
22456;DHT22;11395;53.204;6.502;2023-05-16T12:23:34;25.10;57.00
22456;DHT22;11395;53.204;6.502;2023-05-16T12:26:02;25.10;56.80
22456;DHT22;11395;53.204;6.502;2023-05-16T12:28:32;25.10;57.00
22456;DHT22;11395;53.204;6.502;2023-05-16T12:31:10;25.10;57.60
22456;DHT22;11395;53.204;6.502;2023-05-16T12:33:37;25.10;57.60
22456;DHT22;11395;53.204;6.502;2023-05-16T12:36:03;25.10;57.40
22456;DHT22;11395;53.204;6.502;2023-05-16T12:38:30;25.10;57.40
22456;DHT22;11395;53.204;6.502;2023-05-16T12:40:57;25.10;57.40
22456;DHT22;11395;53.204;6.502;2023-05-16T12:43:24;25.00;57.30
22456;DHT22;11395;53.204;6.502;2023-05-16T12:45:54;25.00;57.40
22456;DHT22;11395;53.204;6.502;2023-05-16T12:48:22;24.90;57.90
22456;DHT22;11395;53.204;6.502;2023-05-16T12:50:48;24.90;57.70
22456;DHT22;11395;53.204;6.502;2023-05-16T12:53:17;24.90;57.50
22456;DHT22;11395;53.204;6.502;2023-05-16T12:55:43;24.80;57.50
22456;DHT22;11395;53.204;6.502;2023-05-16T12:58:10;24.80;57.50
22456;DHT22;11395;53.204;6.502;2023-05-16T13:00:36;24.80;57.80
22456;DHT22;11395;53.204;6.502;2023-05-16T13:03:04;24.80;57.80
22456;DHT22;11395;53.204;6.502;2023-05-16T13:05:31;24.70;58.00
22456;DHT22;11395;53.204;6.502;2023-05-16T13:07:57;24.70;58.00
22456;DHT22;11395;53.204;6.502;2023-05-16T13:10:23;24.70;58.00
22456;DHT22;11395;53.204;6.502;2023-05-16T13:12:50;24.70;58.10
22456;DHT22;11395;53.204;6.502;2023-05-16T13:15:16;24.70;58.00
22456;DHT22;11395;53.204;6.502;2023-05-16T13:17:43;24.70;57.80
22456;DHT22;11395;53.204;6.502;2023-05-16T13:20:09;24.70;57.80
22456;DHT22;11395;53.204;6.502;2023-05-16T13:22:39;24.70;57.80
22456;DHT22;11395;53.204;6.502;2023-05-16T13:25:05;24.70;57.70
22456;DHT22;11395;53.204;6.502;2023-05-16T13:27:32;24.70;57.80
22456;DHT22;11395;53.204;6.502;2023-05-16T13:29:59;24.70;57.80
22456;DHT22;11395;53.204;6.502;2023-05-16T13:32:25;24.70;57.80
22456;DHT22;11395;53.204;6.502;2023-05-16T13:34:52;24.80;57.90
22456;DHT22;11395;53.204;6.502;2023-05-16T13:37:18;24.70;58.00
22456;DHT22;11395;53.204;6.502;2023-05-16T13:39:44;24.70;58.20
22456;DHT22;11395;53.204;6.502;2023-05-16T13:42:10;24.70;58.10
22456;DHT22;11395;53.204;6.502;2023-05-16T13:44:36;24.70;58.30
22456;DHT22;11395;53.204;6.502;2023-05-16T13:47:03;24.60;58.20
22456;DHT22;11395;53.204;6.502;2023-05-16T13:49:29;24.70;58.10
22456;DHT22;11395;53.204;6.502;2023-05-16T13:51:55;24.70;58.10
22456;DHT22;11395;53.204;6.502;2023-05-16T13:54:23;24.70;58.10
22456;DHT22;11395;53.204;6.502;2023-05-16T13:56:49;24.70;58.40
22456;DHT22;11395;53.204;6.502;2023-05-16T13:59:15;24.70;58.50
22456;DHT22;11395;53.204;6.502;2023-05-16T14:01:41;24.70;58.50
22456;DHT22;11395;53.204;6.502;2023-05-16T14:04:08;24.70;58.40
22456;DHT22;11395;53.204;6.502;2023-05-16T14:06:34;24.70;58.30
22456;DHT22;11395;53.204;6.502;2023-05-16T14:09:00;24.70;58.30
22456;DHT22;11395;53.204;6.502;2023-05-16T14:11:27;24.70;58.30
22456;DHT22;11395;53.204;6.502;2023-05-16T14:13:53;24.70;58.30
22456;DHT22;11395;53.204;6.502;2023-05-16T14:16:19;24.70;58.30
22456;DHT22;11395;53.204;6.502;2023-05-16T14:18:46;24.70;58.30
22456;DHT22;11395;53.204;6.502;2023-05-16T14:21:12;24.70;58.30
22456;DHT22;11395;53.204;6.502;2023-05-16T14:23:39;24.70;58.10
22456;DHT22;11395;53.204;6.502;2023-05-16T14:26:06;24.70;58.20
22456;DHT22;11395;53.204;6.502;2023-05-16T14:28:32;24.70;58.20
22456;DHT22;11395;53.204;6.502;2023-05-16T14:30:59;24.70;58.30
22456;DHT22;11395;53.204;6.502;2023-05-16T14:33:25;24.70;58.30
22456;DHT22;11395;53.204;6.502;2023-05-16T14:35:52;24.90;58.50
22456;DHT22;11395;53.204;6.502;2023-05-16T14:38:18;24.70;58.30
22456;DHT22;11395;53.204;6.502;2023-05-16T14:40:45;24.70;58.30
22456;DHT22;11395;53.204;6.502;2023-05-16T14:43:12;24.70;58.70
22456;DHT22;11395;53.204;6.502;2023-05-16T14:45:38;24.60;58.50
22456;DHT22;11395;53.204;6.502;2023-05-16T14:48:05;24.70;58.50
22456;DHT22;11395;53.204;6.502;2023-05-16T14:50:32;24.60;58.40
22456;DHT22;11395;53.204;6.502;2023-05-16T14:52:58;24.60;58.60
22456;DHT22;11395;53.204;6.502;2023-05-16T14:55:24;24.70;58.70
22456;DHT22;11395;53.204;6.502;2023-05-16T14:57:50;24.40;58.70
22456;DHT22;11395;53.204;6.502;2023-05-16T15:00:22;24.40;58.80
22456;DHT22;11395;53.204;6.502;2023-05-16T15:02:49;24.40;59.00
22456;DHT22;11395;53.204;6.502;2023-05-16T15:05:15;24.40;58.90
22456;DHT22;11395;53.204;6.502;2023-05-16T15:07:42;24.30;58.40
22456;DHT22;11395;53.204;6.502;2023-05-16T15:10:09;24.30;59.00
22456;DHT22;11395;53.204;6.502;2023-05-16T15:12:35;24.30;58.50
22456;DHT22;11395;53.204;6.502;2023-05-16T15:15:02;24.30;59.00
22456;DHT22;11395;53.204;6.502;2023-05-16T15:17:29;24.40;58.70
22456;DHT22;11395;53.204;6.502;2023-05-16T15:19:55;24.50;58.80
22456;DHT22;11395;53.204;6.502;2023-05-16T15:22:22;24.60;58.70
22456;DHT22;11395;53.204;6.502;2023-05-16T15:24:49;24.60;58.20
22456;DHT22;11395;53.204;6.502;2023-05-16T15:27:15;24.60;58.20
22456;DHT22;11395;53.204;6.502;2023-05-16T15:29:41;24.60;58.30
22456;DHT22;11395;53.204;6.502;2023-05-16T15:32:08;24.60;58.40
22456;DHT22;11395;53.204;6.502;2023-05-16T15:34:36;24.70;58.20
22456;DHT22;11395;53.204;6.502;2023-05-16T15:37:02;24.70;58.10
22456;DHT22;11395;53.204;6.502;2023-05-16T15:39:28;24.70;58.70
22456;DHT22;11395;53.204;6.502;2023-05-16T15:41:55;24.60;58.40
22456;DHT22;11395;53.204;6.502;2023-05-16T15:44:21;24.60;58.30
22456;DHT22;11395;53.204;6.502;2023-05-16T15:46:47;24.50;58.60
22456;DHT22;11395;53.204;6.502;2023-05-16T15:49:13;24.50;58.80
22456;DHT22;11395;53.204;6.502;2023-05-16T15:51:39;24.50;58.80
22456;DHT22;11395;53.204;6.502;2023-05-16T15:54:06;24.50;59.00
22456;DHT22;11395;53.204;6.502;2023-05-16T15:56:32;24.50;58.80
22456;DHT22;11395;53.204;6.502;2023-05-16T15:58:59;24.60;59.20
22456;DHT22;11395;53.204;6.502;2023-05-16T16:01:25;24.60;59.20
22456;DHT22;11395;53.204;6.502;2023-05-16T16:03:51;24.60;58.40
22456;DHT22;11395;53.204;6.502;2023-05-16T16:06:17;24.60;59.10
22456;DHT22;11395;53.204;6.502;2023-05-16T16:08:43;24.70;59.30
22456;DHT22;11395;53.204;6.502;2023-05-16T16:11:09;24.70;59.30